sensor_id;sensor_type;location;lat;lon;timestamp;P1;durP1;ratioP1;P2;durP2;ratioP2
64598;SDS011;51008;51.504;11.548;2024-02-14T00:04:26;12.70;;;4.82;;
64598;SDS011;51008;51.504;11.548;2024-02-14T00:09:27;10.95;;;4.53;;
64598;SDS011;51008;51.504;11.548;2024-02-14T00:14:28;8.35;;;4.40;;
64598;SDS011;51008;51.504;11.548;2024-02-14T00:19:30;7.10;;;3.92;;
64598;SDS011;51008;51.504;11.548;2024-02-14T00:24:31;11.60;;;4.57;;
64598;SDS011;51008;51.504;11.548;2024-02-14T00:29:32;9.23;;;4.80;;
64598;SDS011;51008;51.504;11.548;2024-02-14T00:34:33;7.78;;;4.40;;
64598;SDS011;51008;51.504;11.548;2024-02-14T00:39:34;7.97;;;4.28;;
64598;SDS011;51008;51.504;11.548;2024-02-14T00:44:36;10.63;;;4.57;;
64598;SDS011;51008;51.504;11.548;2024-02-14T00:49:37;16.50;;;4.43;;
64598;SDS011;51008;51.504;11.548;2024-02-14T00:54:38;8.05;;;4.03;;
64598;SDS011;51008;51.504;11.548;2024-02-14T00:59:39;9.05;;;4.63;;
64598;SDS011;51008;51.504;11.548;2024-02-14T01:04:40;10.75;;;4.15;;
64598;SDS011;51008;51.504;11.548;2024-02-14T01:09:41;12.07;;;4.30;;
64598;SDS011;51008;51.504;11.548;2024-02-14T01:14:43;10.95;;;4.28;;
64598;SDS011;51008;51.504;11.548;2024-02-14T01:19:44;11.82;;;3.72;;
64598;SDS011;51008;51.504;11.548;2024-02-14T01:24:45;8.90;;;4.00;;
64598;SDS011;51008;51.504;11.548;2024-02-14T01:29:46;9.45;;;3.65;;
64598;SDS011;51008;51.504;11.548;2024-02-14T01:34:48;7.97;;;3.40;;
64598;SDS011;51008;51.504;11.548;2024-02-14T01:39:49;6.18;;;3.40;;
64598;SDS011;51008;51.504;11.548;2024-02-14T01:44:50;9.20;;;4.10;;
64598;SDS011;51008;51.504;11.548;2024-02-14T01:49:51;6.18;;;3.30;;
64598;SDS011;51008;51.504;11.548;2024-02-14T01:54:53;8.15;;;3.55;;
64598;SDS011;51008;51.504;11.548;2024-02-14T01:59:55;6.75;;;3.70;;
64598;SDS011;51008;51.504;11.548;2024-02-14T02:04:57;6.57;;;3.58;;
64598;SDS011;51008;51.504;11.548;2024-02-14T02:09:58;7.03;;;3.35;;
64598;SDS011;51008;51.504;11.548;2024-02-14T02:15:00;8.50;;;3.58;;
64598;SDS011;51008;51.504;11.548;2024-02-14T02:20:01;8.40;;;3.53;;
64598;SDS011;51008;51.504;11.548;2024-02-14T02:25:03;7.95;;;3.35;;
64598;SDS011;51008;51.504;11.548;2024-02-14T02:30:05;10.57;;;3.90;;
64598;SDS011;51008;51.504;11.548;2024-02-14T02:35:07;7.65;;;3.22;;
64598;SDS011;51008;51.504;11.548;2024-02-14T02:40:08;6.28;;;3.70;;
64598;SDS011;51008;51.504;11.548;2024-02-14T02:45:10;8.27;;;3.67;;
64598;SDS011;51008;51.504;11.548;2024-02-14T02:50:12;9.27;;;3.72;;
64598;SDS011;51008;51.504;11.548;2024-02-14T02:55:13;9.75;;;3.60;;
64598;SDS011;51008;51.504;11.548;2024-02-14T03:00:14;10.38;;;3.50;;
64598;SDS011;51008;51.504;11.548;2024-02-14T03:05:16;7.45;;;3.30;;
64598;SDS011;51008;51.504;11.548;2024-02-14T03:10:18;11.27;;;3.72;;
64598;SDS011;51008;51.504;11.548;2024-02-14T03:15:19;8.00;;;3.53;;
64598;SDS011;51008;51.504;11.548;2024-02-14T03:20:20;9.98;;;3.90;;
64598;SDS011;51008;51.504;11.548;2024-02-14T03:25:22;10.07;;;4.65;;
64598;SDS011;51008;51.504;11.548;2024-02-14T03:30:23;6.70;;;3.70;;
64598;SDS011;51008;51.504;11.548;2024-02-14T03:35:24;8.38;;;3.83;;
64598;SDS011;51008;51.504;11.548;2024-02-14T03:40:25;9.77;;;3.67;;
64598;SDS011;51008;51.504;11.548;2024-02-14T03:45:26;8.27;;;3.47;;
64598;SDS011;51008;51.504;11.548;2024-02-14T03:50:28;9.68;;;3.83;;
64598;SDS011;51008;51.504;11.548;2024-02-14T03:55:30;8.40;;;3.75;;
64598;SDS011;51008;51.504;11.548;2024-02-14T04:00:31;8.35;;;3.72;;
64598;SDS011;51008;51.504;11.548;2024-02-14T04:05:32;6.97;;;3.15;;
64598;SDS011;51008;51.504;11.548;2024-02-14T04:10:33;3.70;;;2.25;;
64598;SDS011;51008;51.504;11.548;2024-02-14T04:15:35;8.45;;;1.80;;
64598;SDS011;51008;51.504;11.548;2024-02-14T04:20:36;4.70;;;1.65;;
64598;SDS011;51008;51.504;11.548;2024-02-14T04:25:37;3.78;;;1.60;;
64598;SDS011;51008;51.504;11.548;2024-02-14T04:30:38;6.53;;;2.08;;
64598;SDS011;51008;51.504;11.548;2024-02-14T04:35:39;7.07;;;2.17;;
64598;SDS011;51008;51.504;11.548;2024-02-14T04:40:40;4.68;;;1.75;;
64598;SDS011;51008;51.504;11.548;2024-02-14T04:45:42;7.38;;;2.00;;
64598;SDS011;51008;51.504;11.548;2024-02-14T04:50:43;2.85;;;1.60;;
64598;SDS011;51008;51.504;11.548;2024-02-14T04:55:44;4.70;;;1.60;;
64598;SDS011;51008;51.504;11.548;2024-02-14T05:00:45;4.00;;;1.98;;
64598;SDS011;51008;51.504;11.548;2024-02-14T05:05:46;5.20;;;1.73;;
64598;SDS011;51008;51.504;11.548;2024-02-14T05:10:48;5.47;;;1.60;;
64598;SDS011;51008;51.504;11.548;2024-02-14T05:15:49;5.28;;;1.67;;
64598;SDS011;51008;51.504;11.548;2024-02-14T05:20:50;3.17;;;1.75;;
64598;SDS011;51008;51.504;11.548;2024-02-14T05:25:51;6.97;;;1.80;;
64598;SDS011;51008;51.504;11.548;2024-02-14T05:30:52;5.38;;;1.85;;
64598;SDS011;51008;51.504;11.548;2024-02-14T05:35:53;5.15;;;1.75;;
64598;SDS011;51008;51.504;11.548;2024-02-14T05:40:55;3.67;;;1.55;;
64598;SDS011;51008;51.504;11.548;2024-02-14T05:45:56;5.82;;;1.80;;
64598;SDS011;51008;51.504;11.548;2024-02-14T05:50:57;8.10;;;1.80;;
64598;SDS011;51008;51.504;11.548;2024-02-14T05:55:58;4.63;;;1.83;;
64598;SDS011;51008;51.504;11.548;2024-02-14T06:01:00;4.63;;;2.15;;
64598;SDS011;51008;51.504;11.548;2024-02-14T06:06:01;6.55;;;1.88;;
64598;SDS011;51008;51.504;11.548;2024-02-14T06:11:02;7.47;;;1.90;;
64598;SDS011;51008;51.504;11.548;2024-02-14T06:16:03;6.72;;;1.85;;
64598;SDS011;51008;51.504;11.548;2024-02-14T06:21:05;4.85;;;1.80;;
64598;SDS011;51008;51.504;11.548;2024-02-14T06:26:06;6.15;;;2.20;;
64598;SDS011;51008;51.504;11.548;2024-02-14T06:31:08;6.07;;;2.08;;
64598;SDS011;51008;51.504;11.548;2024-02-14T06:36:09;5.53;;;1.75;;
64598;SDS011;51008;51.504;11.548;2024-02-14T06:41:13;4.43;;;1.60;;
64598;SDS011;51008;51.504;11.548;2024-02-14T06:46:14;8.07;;;2.13;;
64598;SDS011;51008;51.504;11.548;2024-02-14T06:51:16;7.40;;;2.90;;
64598;SDS011;51008;51.504;11.548;2024-02-14T06:56:17;4.22;;;1.80;;
64598;SDS011;51008;51.504;11.548;2024-02-14T07:01:18;3.97;;;1.70;;
64598;SDS011;51008;51.504;11.548;2024-02-14T07:06:20;5.53;;;1.83;;
64598;SDS011;51008;51.504;11.548;2024-02-14T07:11:21;5.95;;;1.80;;
64598;SDS011;51008;51.504;11.548;2024-02-14T07:16:23;3.67;;;1.73;;
64598;SDS011;51008;51.504;11.548;2024-02-14T07:21:24;8.18;;;2.10;;
64598;SDS011;51008;51.504;11.548;2024-02-14T07:26:25;5.35;;;1.92;;
64598;SDS011;51008;51.504;11.548;2024-02-14T07:31:28;5.03;;;1.83;;
64598;SDS011;51008;51.504;11.548;2024-02-14T07:36:32;5.40;;;2.28;;
64598;SDS011;51008;51.504;11.548;2024-02-14T07:41:33;6.53;;;2.05;;
64598;SDS011;51008;51.504;11.548;2024-02-14T07:46:34;8.70;;;2.05;;
64598;SDS011;51008;51.504;11.548;2024-02-14T07:51:35;4.00;;;1.60;;
64598;SDS011;51008;51.504;11.548;2024-02-14T07:56:37;7.43;;;2.13;;
64598;SDS011;51008;51.504;11.548;2024-02-14T08:01:38;4.28;;;2.20;;
64598;SDS011;51008;51.504;11.548;2024-02-14T08:06:39;5.78;;;2.00;;
64598;SDS011;51008;51.504;11.548;2024-02-14T08:11:40;5.35;;;2.50;;
64598;SDS011;51008;51.504;11.548;2024-02-14T08:16:42;8.15;;;2.17;;
64598;SDS011;51008;51.504;11.548;2024-02-14T08:21:43;5.32;;;2.30;;
64598;SDS011;51008;51.504;11.548;2024-02-14T08:26:44;6.78;;;2.20;;
64598;SDS011;51008;51.504;11.548;2024-02-14T08:31:45;6.82;;;2.15;;
64598;SDS011;51008;51.504;11.548;2024-02-14T08:36:47;5.43;;;2.47;;
64598;SDS011;51008;51.504;11.548;2024-02-14T08:41:48;5.72;;;2.40;;
64598;SDS011;51008;51.504;11.548;2024-02-14T08:46:49;5.60;;;2.58;;
64598;SDS011;51008;51.504;11.548;2024-02-14T08:51:51;7.38;;;2.47;;
64598;SDS011;51008;51.504;11.548;2024-02-14T08:56:52;6.95;;;2.63;;
64598;SDS011;51008;51.504;11.548;2024-02-14T09:01:53;11.65;;;5.53;;
64598;SDS011;51008;51.504;11.548;2024-02-14T09:06:54;5.05;;;3.13;;
64598;SDS011;51008;51.504;11.548;2024-02-14T09:11:56;7.97;;;3.40;;
64598;SDS011;51008;51.504;11.548;2024-02-14T09:16:58;7.40;;;2.50;;
64598;SDS011;51008;51.504;11.548;2024-02-14T09:21:59;6.55;;;2.75;;
64598;SDS011;51008;51.504;11.548;2024-02-14T09:27:00;5.25;;;2.58;;
64598;SDS011;51008;51.504;11.548;2024-02-14T09:32:01;7.90;;;2.83;;
64598;SDS011;51008;51.504;11.548;2024-02-14T09:37:02;6.55;;;2.90;;
64598;SDS011;51008;51.504;11.548;2024-02-14T09:42:06;10.00;;;2.72;;
64598;SDS011;51008;51.504;11.548;2024-02-14T09:47:10;7.57;;;2.85;;
64598;SDS011;51008;51.504;11.548;2024-02-14T09:52:11;7.32;;;2.75;;
64598;SDS011;51008;51.504;11.548;2024-02-14T09:57:13;5.97;;;2.97;;
64598;SDS011;51008;51.504;11.548;2024-02-14T10:02:17;7.22;;;2.65;;
64598;SDS011;51008;51.504;11.548;2024-02-14T10:07:18;4.18;;;2.38;;
64598;SDS011;51008;51.504;11.548;2024-02-14T10:12:20;6.50;;;2.80;;
64598;SDS011;51008;51.504;11.548;2024-02-14T10:17:21;7.18;;;2.90;;
64598;SDS011;51008;51.504;11.548;2024-02-14T10:22:22;6.47;;;2.75;;
64598;SDS011;51008;51.504;11.548;2024-02-14T10:27:23;6.80;;;3.22;;
64598;SDS011;51008;51.504;11.548;2024-02-14T10:32:27;6.22;;;2.80;;
64598;SDS011;51008;51.504;11.548;2024-02-14T10:37:28;6.45;;;2.70;;
64598;SDS011;51008;51.504;11.548;2024-02-14T10:42:31;5.55;;;2.47;;
64598;SDS011;51008;51.504;11.548;2024-02-14T10:47:35;7.63;;;2.70;;
64598;SDS011;51008;51.504;11.548;2024-02-14T10:52:40;8.00;;;2.70;;
64598;SDS011;51008;51.504;11.548;2024-02-14T10:57:45;7.20;;;2.60;;
64598;SDS011;51008;51.504;11.548;2024-02-14T11:02:47;7.82;;;3.03;;
64598;SDS011;51008;51.504;11.548;2024-02-14T11:07:49;4.68;;;2.83;;
64598;SDS011;51008;51.504;11.548;2024-02-14T11:12:51;6.43;;;2.92;;
64598;SDS011;51008;51.504;11.548;2024-02-14T11:18:03;8.02;;;2.60;;
64598;SDS011;51008;51.504;11.548;2024-02-14T11:23:06;8.38;;;2.85;;
64598;SDS011;51008;51.504;11.548;2024-02-14T11:28:14;8.15;;;2.65;;
64598;SDS011;51008;51.504;11.548;2024-02-14T11:33:20;5.25;;;2.10;;
64598;SDS011;51008;51.504;11.548;2024-02-14T11:38:23;7.97;;;2.40;;
64598;SDS011;51008;51.504;11.548;2024-02-14T11:43:25;7.72;;;2.60;;
64598;SDS011;51008;51.504;11.548;2024-02-14T11:48:26;5.78;;;2.50;;
64598;SDS011;51008;51.504;11.548;2024-02-14T11:53:29;7.15;;;2.63;;
64598;SDS011;51008;51.504;11.548;2024-02-14T11:58:30;4.28;;;2.05;;
64598;SDS011;51008;51.504;11.548;2024-02-14T12:03:31;5.72;;;2.17;;
64598;SDS011;51008;51.504;11.548;2024-02-14T12:08:33;3.42;;;1.95;;
64598;SDS011;51008;51.504;11.548;2024-02-14T12:13:34;4.03;;;2.22;;
64598;SDS011;51008;51.504;11.548;2024-02-14T12:18:36;4.82;;;2.35;;
64598;SDS011;51008;51.504;11.548;2024-02-14T12:23:37;5.93;;;2.47;;
64598;SDS011;51008;51.504;11.548;2024-02-14T12:28:38;4.47;;;1.80;;
64598;SDS011;51008;51.504;11.548;2024-02-14T12:33:39;6.13;;;2.40;;
64598;SDS011;51008;51.504;11.548;2024-02-14T12:38:40;9.20;;;2.22;;
64598;SDS011;51008;51.504;11.548;2024-02-14T12:43:41;8.77;;;2.78;;
64598;SDS011;51008;51.504;11.548;2024-02-14T12:48:43;7.95;;;2.50;;
64598;SDS011;51008;51.504;11.548;2024-02-14T12:53:44;4.70;;;2.38;;
64598;SDS011;51008;51.504;11.548;2024-02-14T12:58:45;4.78;;;2.72;;
64598;SDS011;51008;51.504;11.548;2024-02-14T13:03:46;4.93;;;2.45;;
64598;SDS011;51008;51.504;11.548;2024-02-14T13:08:47;6.20;;;2.90;;
64598;SDS011;51008;51.504;11.548;2024-02-14T13:13:49;4.78;;;2.50;;
64598;SDS011;51008;51.504;11.548;2024-02-14T13:18:50;5.45;;;2.38;;
64598;SDS011;51008;51.504;11.548;2024-02-14T13:23:51;7.85;;;2.65;;
64598;SDS011;51008;51.504;11.548;2024-02-14T13:28:52;7.68;;;2.67;;
64598;SDS011;51008;51.504;11.548;2024-02-14T13:33:53;7.35;;;2.83;;
64598;SDS011;51008;51.504;11.548;2024-02-14T13:38:54;6.82;;;3.45;;
64598;SDS011;51008;51.504;11.548;2024-02-14T13:43:55;7.47;;;2.63;;
64598;SDS011;51008;51.504;11.548;2024-02-14T13:48:57;7.88;;;3.30;;
64598;SDS011;51008;51.504;11.548;2024-02-14T13:53:58;5.97;;;3.15;;
64598;SDS011;51008;51.504;11.548;2024-02-14T13:58:59;6.82;;;2.65;;
64598;SDS011;51008;51.504;11.548;2024-02-14T14:04:00;5.93;;;2.67;;
64598;SDS011;51008;51.504;11.548;2024-02-14T14:09:01;7.13;;;2.88;;
64598;SDS011;51008;51.504;11.548;2024-02-14T14:14:02;8.68;;;2.80;;
64598;SDS011;51008;51.504;11.548;2024-02-14T14:19:04;5.70;;;2.60;;
64598;SDS011;51008;51.504;11.548;2024-02-14T14:24:05;4.50;;;2.50;;
64598;SDS011;51008;51.504;11.548;2024-02-14T14:29:06;5.93;;;2.45;;
64598;SDS011;51008;51.504;11.548;2024-02-14T14:34:07;6.40;;;2.55;;
64598;SDS011;51008;51.504;11.548;2024-02-14T14:39:08;6.00;;;2.38;;
64598;SDS011;51008;51.504;11.548;2024-02-14T14:44:10;7.07;;;2.65;;
64598;SDS011;51008;51.504;11.548;2024-02-14T14:49:11;7.25;;;2.63;;
64598;SDS011;51008;51.504;11.548;2024-02-14T14:54:12;5.35;;;2.40;;
64598;SDS011;51008;51.504;11.548;2024-02-14T14:59:13;5.95;;;2.22;;
64598;SDS011;51008;51.504;11.548;2024-02-14T15:04:15;4.40;;;2.40;;
64598;SDS011;51008;51.504;11.548;2024-02-14T15:09:16;4.82;;;2.35;;
64598;SDS011;51008;51.504;11.548;2024-02-14T15:14:17;4.15;;;2.30;;
64598;SDS011;51008;51.504;11.548;2024-02-14T15:19:19;5.85;;;2.60;;
64598;SDS011;51008;51.504;11.548;2024-02-14T15:24:20;6.13;;;2.60;;
64598;SDS011;51008;51.504;11.548;2024-02-14T15:29:21;4.82;;;2.50;;
64598;SDS011;51008;51.504;11.548;2024-02-14T15:34:22;6.85;;;2.20;;
64598;SDS011;51008;51.504;11.548;2024-02-14T15:39:23;6.07;;;2.50;;
64598;SDS011;51008;51.504;11.548;2024-02-14T15:44:24;3.45;;;2.30;;
64598;SDS011;51008;51.504;11.548;2024-02-14T15:49:26;5.85;;;2.40;;
64598;SDS011;51008;51.504;11.548;2024-02-14T15:54:27;3.70;;;2.10;;
64598;SDS011;51008;51.504;11.548;2024-02-14T15:59:28;5.45;;;2.40;;
64598;SDS011;51008;51.504;11.548;2024-02-14T16:04:30;4.82;;;2.53;;
64598;SDS011;51008;51.504;11.548;2024-02-14T16:09:31;5.10;;;2.40;;
64598;SDS011;51008;51.504;11.548;2024-02-14T16:14:32;4.88;;;2.72;;
64598;SDS011;51008;51.504;11.548;2024-02-14T16:19:33;7.85;;;2.53;;
64598;SDS011;51008;51.504;11.548;2024-02-14T16:24:34;4.05;;;2.13;;
64598;SDS011;51008;51.504;11.548;2024-02-14T16:29:36;4.93;;;2.45;;
64598;SDS011;51008;51.504;11.548;2024-02-14T16:34:37;6.75;;;2.55;;
64598;SDS011;51008;51.504;11.548;2024-02-14T16:39:38;9.27;;;2.45;;
64598;SDS011;51008;51.504;11.548;2024-02-14T16:44:39;6.97;;;2.22;;
64598;SDS011;51008;51.504;11.548;2024-02-14T16:49:40;3.30;;;2.25;;
64598;SDS011;51008;51.504;11.548;2024-02-14T16:54:41;5.45;;;2.25;;
64598;SDS011;51008;51.504;11.548;2024-02-14T16:59:42;5.47;;;2.28;;
64598;SDS011;51008;51.504;11.548;2024-02-14T17:04:44;3.58;;;2.20;;
64598;SDS011;51008;51.504;11.548;2024-02-14T17:09:45;7.28;;;2.80;;
64598;SDS011;51008;51.504;11.548;2024-02-14T17:14:46;7.05;;;2.88;;
64598;SDS011;51008;51.504;11.548;2024-02-14T17:19:47;4.00;;;2.03;;
64598;SDS011;51008;51.504;11.548;2024-02-14T17:24:48;6.47;;;2.50;;
64598;SDS011;51008;51.504;11.548;2024-02-14T17:29:49;4.80;;;2.35;;
64598;SDS011;51008;51.504;11.548;2024-02-14T17:34:50;8.10;;;2.40;;
64598;SDS011;51008;51.504;11.548;2024-02-14T17:39:52;5.47;;;2.70;;
64598;SDS011;51008;51.504;11.548;2024-02-14T17:44:53;4.63;;;2.35;;
64598;SDS011;51008;51.504;11.548;2024-02-14T17:49:54;4.93;;;2.42;;
64598;SDS011;51008;51.504;11.548;2024-02-14T17:54:55;5.18;;;2.42;;
64598;SDS011;51008;51.504;11.548;2024-02-14T17:59:57;6.78;;;2.42;;
64598;SDS011;51008;51.504;11.548;2024-02-14T18:04:58;5.32;;;2.35;;
64598;SDS011;51008;51.504;11.548;2024-02-14T18:09:59;6.30;;;2.20;;
64598;SDS011;51008;51.504;11.548;2024-02-14T18:15:00;4.38;;;2.22;;
64598;SDS011;51008;51.504;11.548;2024-02-14T18:20:02;4.22;;;2.28;;
64598;SDS011;51008;51.504;11.548;2024-02-14T18:25:03;6.03;;;2.72;;
64598;SDS011;51008;51.504;11.548;2024-02-14T18:30:05;7.20;;;2.20;;
64598;SDS011;51008;51.504;11.548;2024-02-14T18:35:07;4.85;;;2.20;;
64598;SDS011;51008;51.504;11.548;2024-02-14T18:40:09;6.35;;;3.08;;
64598;SDS011;51008;51.504;11.548;2024-02-14T18:45:10;5.97;;;2.28;;
64598;SDS011;51008;51.504;11.548;2024-02-14T18:50:11;2.90;;;2.03;;
64598;SDS011;51008;51.504;11.548;2024-02-14T18:55:13;4.00;;;2.15;;
64598;SDS011;51008;51.504;11.548;2024-02-14T19:00:14;5.72;;;2.55;;
64598;SDS011;51008;51.504;11.548;2024-02-14T19:05:17;4.80;;;2.45;;
64598;SDS011;51008;51.504;11.548;2024-02-14T19:10:18;7.00;;;2.53;;
64598;SDS011;51008;51.504;11.548;2024-02-14T19:15:19;3.72;;;2.10;;
64598;SDS011;51008;51.504;11.548;2024-02-14T19:20:20;5.07;;;2.53;;
64598;SDS011;51008;51.504;11.548;2024-02-14T19:25:22;4.45;;;2.45;;
64598;SDS011;51008;51.504;11.548;2024-02-14T19:30:24;6.03;;;2.78;;
64598;SDS011;51008;51.504;11.548;2024-02-14T19:35:25;6.63;;;3.00;;
64598;SDS011;51008;51.504;11.548;2024-02-14T19:40:26;7.22;;;3.42;;
64598;SDS011;51008;51.504;11.548;2024-02-14T19:45:28;6.63;;;3.55;;
64598;SDS011;51008;51.504;11.548;2024-02-14T19:50:29;7.78;;;4.30;;
64598;SDS011;51008;51.504;11.548;2024-02-14T19:55:30;6.18;;;4.05;;
64598;SDS011;51008;51.504;11.548;2024-02-14T20:00:31;10.52;;;4.38;;
64598;SDS011;51008;51.504;11.548;2024-02-14T20:05:32;9.40;;;4.20;;
64598;SDS011;51008;51.504;11.548;2024-02-14T20:10:34;9.77;;;3.92;;
64598;SDS011;51008;51.504;11.548;2024-02-14T20:15:35;7.20;;;4.05;;
64598;SDS011;51008;51.504;11.548;2024-02-14T20:20:37;6.95;;;3.70;;
64598;SDS011;51008;51.504;11.548;2024-02-14T20:25:38;7.40;;;3.55;;
64598;SDS011;51008;51.504;11.548;2024-02-14T20:30:39;5.80;;;3.28;;
64598;SDS011;51008;51.504;11.548;2024-02-14T20:35:42;10.35;;;4.15;;
64598;SDS011;51008;51.504;11.548;2024-02-14T20:40:43;13.80;;;4.40;;
64598;SDS011;51008;51.504;11.548;2024-02-14T20:45:44;5.63;;;4.13;;
64598;SDS011;51008;51.504;11.548;2024-02-14T20:50:45;7.20;;;4.20;;
64598;SDS011;51008;51.504;11.548;2024-02-14T20:55:47;10.18;;;4.85;;
64598;SDS011;51008;51.504;11.548;2024-02-14T21:00:48;8.27;;;4.63;;
64598;SDS011;51008;51.504;11.548;2024-02-14T21:05:49;8.35;;;5.25;;
64598;SDS011;51008;51.504;11.548;2024-02-14T21:10:50;12.43;;;6.28;;
64598;SDS011;51008;51.504;11.548;2024-02-14T21:15:51;9.95;;;5.88;;
64598;SDS011;51008;51.504;11.548;2024-02-14T21:20:53;11.52;;;7.32;;
64598;SDS011;51008;51.504;11.548;2024-02-14T21:25:54;12.43;;;7.68;;
64598;SDS011;51008;51.504;11.548;2024-02-14T21:30:55;13.02;;;8.57;;
64598;SDS011;51008;51.504;11.548;2024-02-14T21:35:56;11.73;;;8.48;;
64598;SDS011;51008;51.504;11.548;2024-02-14T21:40:57;14.18;;;8.57;;
64598;SDS011;51008;51.504;11.548;2024-02-14T21:46:14;13.20;;;9.32;;
64598;SDS011;51008;51.504;11.548;2024-02-14T21:51:15;15.10;;;8.38;;
64598;SDS011;51008;51.504;11.548;2024-02-14T21:56:17;10.48;;;8.68;;
64598;SDS011;51008;51.504;11.548;2024-02-14T22:01:18;16.08;;;9.32;;
64598;SDS011;51008;51.504;11.548;2024-02-14T22:06:19;15.10;;;9.25;;
64598;SDS011;51008;51.504;11.548;2024-02-14T22:11:21;14.88;;;9.25;;
64598;SDS011;51008;51.504;11.548;2024-02-14T22:16:22;13.65;;;9.48;;
64598;SDS011;51008;51.504;11.548;2024-02-14T22:21:23;14.13;;;9.82;;
64598;SDS011;51008;51.504;11.548;2024-02-14T22:26:24;14.00;;;9.35;;
64598;SDS011;51008;51.504;11.548;2024-02-14T22:31:25;14.98;;;9.70;;
64598;SDS011;51008;51.504;11.548;2024-02-14T22:36:26;14.90;;;8.98;;
64598;SDS011;51008;51.504;11.548;2024-02-14T22:41:27;12.13;;;8.10;;
64598;SDS011;51008;51.504;11.548;2024-02-14T22:46:28;14.60;;;7.85;;
64598;SDS011;51008;51.504;11.548;2024-02-14T22:51:29;13.10;;;7.07;;
64598;SDS011;51008;51.504;11.548;2024-02-14T22:56:31;9.32;;;6.43;;
64598;SDS011;51008;51.504;11.548;2024-02-14T23:01:32;10.88;;;6.65;;
64598;SDS011;51008;51.504;11.548;2024-02-14T23:06:33;11.00;;;6.95;;
64598;SDS011;51008;51.504;11.548;2024-02-14T23:11:37;9.52;;;6.93;;
64598;SDS011;51008;51.504;11.548;2024-02-14T23:16:39;9.82;;;7.07;;
64598;SDS011;51008;51.504;11.548;2024-02-14T23:21:40;8.60;;;6.28;;
64598;SDS011;51008;51.504;11.548;2024-02-14T23:26:41;10.65;;;6.63;;
64598;SDS011;51008;51.504;11.548;2024-02-14T23:31:42;8.95;;;6.18;;
64598;SDS011;51008;51.504;11.548;2024-02-14T23:36:43;9.85;;;6.82;;
64598;SDS011;51008;51.504;11.548;2024-02-14T23:41:45;10.98;;;6.93;;
64598;SDS011;51008;51.504;11.548;2024-02-14T23:46:46;10.20;;;6.93;;
64598;SDS011;51008;51.504;11.548;2024-02-14T23:51:47;11.45;;;6.93;;
64598;SDS011;51008;51.504;11.548;2024-02-14T23:56:48;9.63;;;7.10;;
